createdAt,value
2018-05-31T00:00:15.849Z,9.55
2018-05-31T00:02:42.689Z,9.52
2018-05-31T00:05:09.548Z,9.48
2018-05-31T00:07:35.645Z,9.85
2018-05-31T00:10:01.769Z,10.20
2018-05-31T00:12:27.878Z,10.20
2018-05-31T00:14:53.991Z,10.65
2018-05-31T00:17:20.113Z,10.75
2018-05-31T00:19:46.209Z,10.30
2018-05-31T00:22:12.322Z,9.63
2018-05-31T00:24:39.157Z,10.00
2018-05-31T00:27:05.997Z,10.30
2018-05-31T00:29:32.853Z,10.70
2018-05-31T00:31:59.701Z,11.40
2018-05-31T00:34:26.537Z,11.67
2018-05-31T00:36:53.384Z,11.47
2018-05-31T00:39:20.260Z,11.57
2018-05-31T00:41:46.333Z,11.40
2018-05-31T00:44:12.438Z,11.20
2018-05-31T00:46:38.538Z,11.67
2018-05-31T00:49:04.642Z,11.77
2018-05-31T00:51:30.758Z,11.37
2018-05-31T00:53:56.870Z,11.93
2018-05-31T00:56:22.970Z,12.33
2018-05-31T00:58:49.080Z,11.20
2018-05-31T01:01:15.194Z,12.83
2018-05-31T01:03:41.310Z,12.57
2018-05-31T01:06:07.405Z,12.23
2018-05-31T01:08:33.509Z,12.30
2018-05-31T01:10:59.615Z,13.00
2018-05-31T01:13:25.722Z,13.13
2018-05-31T01:15:51.835Z,12.83
2018-05-31T01:18:17.949Z,12.73
2018-05-31T01:20:44.049Z,13.80
2018-05-31T01:23:10.162Z,12.30
2018-05-31T01:25:36.274Z,12.53
2018-05-31T01:28:02.378Z,12.53
2018-05-31T01:30:28.495Z,12.50
2018-05-31T01:32:54.602Z,14.00
2018-05-31T01:35:20.759Z,12.50
2018-05-31T01:37:46.874Z,12.63
2018-05-31T01:40:12.966Z,12.67
2018-05-31T01:42:39.066Z,11.83
2018-05-31T01:45:05.154Z,12.67
2018-05-31T01:47:31.266Z,12.87
2018-05-31T01:49:57.374Z,11.90
2018-05-31T01:52:24.226Z,11.60
2018-05-31T01:54:51.057Z,12.53
2018-05-31T01:57:17.905Z,11.67
2018-05-31T01:59:44.758Z,11.90
2018-05-31T02:02:11.594Z,12.13
2018-05-31T02:04:38.462Z,12.67
2018-05-31T02:07:04.552Z,11.97
2018-05-31T02:09:30.663Z,12.67
2018-05-31T02:11:56.775Z,12.63
2018-05-31T02:14:22.894Z,13.27
2018-05-31T02:16:48.993Z,13.50
2018-05-31T02:19:15.098Z,12.63
2018-05-31T02:21:41.934Z,13.17
2018-05-31T02:24:08.785Z,13.20
2018-05-31T02:26:35.625Z,13.27
2018-05-31T02:29:02.465Z,13.30
2018-05-31T02:31:29.318Z,13.63
2018-05-31T02:33:55.426Z,13.83
2018-05-31T02:36:22.282Z,13.27
2018-05-31T02:38:49.147Z,12.27
2018-05-31T02:41:15.254Z,11.83
2018-05-31T02:43:42.122Z,11.17
2018-05-31T02:46:08.230Z,12.43
2018-05-31T02:48:34.337Z,11.27
2018-05-31T02:51:00.434Z,11.13
2018-05-31T02:53:26.542Z,11.80
2018-05-31T02:55:53.222Z,11.33
2018-05-31T02:58:19.324Z,10.87
2018-05-31T03:00:45.429Z,11.07
2018-05-31T03:03:11.530Z,10.93
2018-05-31T03:05:37.651Z,11.13
2018-05-31T03:08:03.746Z,11.33
2018-05-31T03:10:29.846Z,10.33
2018-05-31T03:12:55.955Z,10.27
2018-05-31T03:15:22.078Z,10.60
2018-05-31T03:17:48.214Z,10.07
2018-05-31T03:20:14.299Z,9.97
2018-05-31T03:22:41.148Z,9.47
2018-05-31T03:25:08.002Z,10.10
2018-05-31T03:27:34.103Z,9.43
2018-05-31T03:30:00.950Z,9.43
2018-05-31T03:32:27.793Z,9.27
2018-05-31T03:34:54.633Z,9.57
2018-05-31T03:37:21.467Z,9.20
2018-05-31T03:39:47.571Z,9.93
2018-05-31T03:42:13.665Z,9.83
2018-05-31T03:44:39.777Z,8.77
2018-05-31T03:47:05.878Z,9.53
2018-05-31T03:49:32.730Z,10.13
2018-05-31T03:51:59.577Z,10.30
2018-05-31T03:54:26.427Z,10.27
2018-05-31T03:56:52.530Z,10.00
2018-05-31T03:59:18.638Z,10.00
2018-05-31T04:01:44.746Z,9.83
2018-05-31T04:04:13.013Z,9.90
2018-05-31T04:06:39.126Z,9.97
2018-05-31T04:09:05.246Z,9.73
2018-05-31T04:11:31.346Z,8.97
2018-05-31T04:13:58.190Z,9.97
2018-05-31T04:16:25.039Z,9.53
2018-05-31T04:18:51.883Z,9.53
2018-05-31T04:21:18.733Z,9.50
2018-05-31T04:23:44.834Z,8.47
2018-05-31T04:26:11.690Z,9.07
2018-05-31T04:28:38.537Z,9.00
2018-05-31T04:31:05.387Z,8.63
2018-05-31T04:33:31.489Z,8.63
2018-05-31T04:35:57.590Z,8.88
2018-05-31T04:38:23.689Z,8.55
2018-05-31T04:40:49.801Z,8.68
2018-05-31T04:43:15.910Z,8.48
2018-05-31T04:45:42.004Z,8.63
2018-05-31T04:48:08.103Z,7.85
2018-05-31T04:50:34.214Z,8.02
2018-05-31T04:53:00.313Z,8.07
2018-05-31T04:55:27.161Z,8.05
2018-05-31T04:57:53.265Z,8.27
2018-05-31T05:00:19.369Z,8.00
2018-05-31T05:02:45.482Z,7.85
2018-05-31T05:05:11.581Z,8.00
2018-05-31T05:07:37.693Z,7.55
2018-05-31T05:10:03.802Z,8.18
2018-05-31T05:12:30.678Z,7.12
2018-05-31T05:14:56.773Z,7.70
2018-05-31T05:17:23.621Z,7.30
2018-05-31T05:19:50.462Z,7.43
2018-05-31T05:22:17.309Z,7.35
2018-05-31T05:24:44.154Z,8.68
2018-05-31T05:27:11.010Z,6.80
2018-05-31T05:29:37.118Z,7.18
2018-05-31T05:32:03.977Z,7.20
2018-05-31T05:34:30.079Z,6.75
2018-05-31T05:36:56.185Z,7.40
2018-05-31T05:39:22.290Z,7.07
2018-05-31T05:41:48.402Z,7.28
2018-05-31T05:44:14.509Z,7.20
2018-05-31T05:46:40.626Z,6.72
2018-05-31T05:49:06.734Z,6.95
2018-05-31T05:51:32.834Z,7.15
2018-05-31T05:53:58.947Z,6.93
2018-05-31T05:56:25.067Z,6.90
2018-05-31T05:58:51.169Z,7.15
2018-05-31T06:01:17.282Z,6.95
2018-05-31T06:03:44.137Z,7.10
2018-05-31T06:06:10.238Z,7.20
2018-05-31T06:08:36.438Z,7.20
2018-05-31T06:17:02.403Z,7.37
2018-05-31T06:19:28.506Z,6.93
2018-05-31T06:21:54.602Z,6.57
2018-05-31T06:24:20.715Z,7.20
2018-05-31T06:26:47.558Z,6.85
2018-05-31T06:29:14.394Z,6.90
2018-05-31T06:31:41.242Z,7.20
2018-05-31T06:34:08.097Z,7.40
2018-05-31T06:36:34.202Z,6.97
2018-05-31T06:39:00.306Z,6.75
2018-05-31T06:41:26.396Z,7.10
2018-05-31T06:43:52.498Z,6.68
2018-05-31T06:46:19.329Z,6.93
2018-05-31T06:48:45.430Z,7.10
2018-05-31T06:51:11.514Z,6.57
2018-05-31T06:53:38.246Z,6.43
2018-05-31T06:56:05.080Z,6.68
2018-05-31T06:58:31.917Z,6.60
2018-05-31T07:00:58.757Z,6.45
2018-05-31T07:03:25.606Z,6.78
2018-05-31T07:05:52.449Z,6.72
2018-05-31T07:08:19.307Z,6.75
2018-05-31T07:10:46.138Z,6.85
2018-05-31T07:13:12.994Z,6.22
2018-05-31T07:15:39.827Z,6.80
2018-05-31T07:18:06.658Z,6.82
2018-05-31T07:20:32.753Z,6.70
2018-05-31T07:22:58.907Z,6.37
2018-05-31T07:25:24.997Z,6.47
2018-05-31T07:27:51.086Z,6.55
2018-05-31T07:30:17.182Z,6.72
2018-05-31T07:32:43.284Z,7.00
2018-05-31T07:35:09.391Z,6.35
2018-05-31T07:37:35.489Z,6.62
2018-05-31T07:40:01.599Z,6.72
2018-05-31T07:42:28.447Z,6.80
2018-05-31T07:44:55.297Z,6.20
2018-05-31T07:47:22.121Z,6.93
2018-05-31T07:49:48.960Z,6.80
2018-05-31T07:52:15.051Z,6.95
2018-05-31T07:54:41.167Z,6.87
2018-05-31T07:57:22.602Z,6.50
2018-05-31T07:59:49.452Z,6.53
2018-05-31T08:02:16.291Z,6.35
2018-05-31T08:04:43.122Z,6.47
2018-05-31T08:07:09.201Z,6.55
2018-05-31T08:09:35.316Z,6.82
2018-05-31T08:12:01.415Z,7.28
2018-05-31T08:14:28.249Z,6.15
2018-05-31T08:16:54.353Z,6.30
2018-05-31T08:19:20.464Z,6.50
2018-05-31T08:21:46.554Z,6.50
2018-05-31T08:24:12.666Z,6.22
2018-05-31T08:26:39.510Z,6.40
2018-05-31T08:29:06.330Z,6.22
2018-05-31T08:31:33.212Z,6.78
2018-05-31T08:33:59.245Z,6.72
2018-05-31T08:36:25.340Z,6.97
2018-05-31T08:38:52.191Z,6.95
2018-05-31T08:41:19.033Z,6.30
2018-05-31T08:43:45.868Z,7.07
2018-05-31T08:46:12.707Z,6.35
2018-05-31T08:48:38.799Z,6.40
2018-05-31T08:51:04.936Z,6.72
2018-05-31T08:53:31.813Z,6.93
2018-05-31T08:55:58.658Z,6.80
2018-05-31T08:58:25.489Z,6.68
2018-05-31T09:00:51.591Z,6.62
2018-05-31T09:03:17.690Z,6.75
2018-05-31T09:05:43.794Z,6.50
2018-05-31T09:08:09.895Z,7.18
2018-05-31T09:10:35.990Z,6.82
2018-05-31T09:13:02.087Z,6.82
2018-05-31T09:15:28.189Z,7.22
2018-05-31T09:17:55.021Z,6.50
2018-05-31T09:20:21.872Z,7.18
2018-05-31T09:22:48.703Z,7.10
2018-05-31T09:25:22.186Z,6.57
2018-05-31T09:27:51.930Z,6.57
2018-05-31T09:30:18.763Z,6.37
2018-05-31T09:32:45.600Z,6.87
2018-05-31T09:35:11.686Z,6.82
2018-05-31T09:37:48.775Z,6.80
2018-05-31T09:40:14.963Z,7.15
2018-05-31T09:43:00.098Z,8.40
2018-05-31T09:45:26.193Z,7.25
2018-05-31T09:48:03.078Z,6.85
2018-05-31T09:50:29.184Z,7.28
2018-05-31T09:52:55.287Z,7.43
2018-05-31T09:55:28.522Z,7.25
2018-05-31T09:57:54.714Z,6.90
2018-05-31T10:00:20.818Z,6.95
2018-05-31T10:03:01.678Z,6.60
2018-05-31T10:05:46.135Z,6.80
2018-05-31T10:08:42.043Z,6.53
2018-05-31T10:11:08.146Z,7.60
2018-05-31T10:13:34.258Z,7.12
2018-05-31T10:16:18.560Z,7.15
2018-05-31T10:18:44.655Z,7.47
2018-05-31T10:21:10.741Z,6.50
2018-05-31T10:23:54.782Z,14.50
2018-05-31T10:26:22.653Z,29.73
2018-05-31T10:31:50.670Z,7.20
2018-05-31T10:34:16.771Z,7.30
2018-05-31T10:40:09.411Z,6.25
2018-05-31T10:42:36.990Z,6.95
2018-05-31T10:45:05.893Z,6.95
2018-05-31T10:47:32.736Z,6.97
2018-05-31T10:49:59.570Z,7.53
2018-05-31T10:52:26.414Z,6.90
2018-05-31T10:54:53.233Z,6.87
2018-05-31T10:57:19.323Z,7.32
2018-05-31T10:59:45.418Z,7.28
2018-05-31T11:02:11.533Z,7.35
2018-05-31T11:04:38.377Z,7.95
2018-05-31T11:07:05.202Z,8.05
2018-05-31T11:09:32.050Z,7.30
2018-05-31T11:11:58.135Z,7.30
2018-05-31T11:14:24.243Z,7.68
2018-05-31T11:16:50.850Z,7.10
2018-05-31T11:19:17.689Z,6.68
2018-05-31T11:21:44.550Z,7.25
2018-05-31T11:24:14.982Z,7.12
2018-05-31T11:26:41.069Z,6.97
2018-05-31T11:29:07.175Z,7.07
2018-05-31T11:31:33.276Z,6.78
2018-05-31T11:33:59.374Z,7.20
2018-05-31T11:36:26.237Z,6.93
2018-05-31T11:38:52.342Z,6.47
2018-05-31T11:41:19.187Z,7.10
2018-05-31T11:43:46.029Z,7.32
2018-05-31T11:46:12.858Z,7.30
2018-05-31T11:48:39.698Z,6.70
2018-05-31T11:51:05.774Z,6.50
2018-05-31T11:53:31.885Z,6.05
2018-05-31T11:55:57.961Z,7.07
2018-05-31T11:58:24.060Z,6.87
2018-05-31T12:00:50.157Z,7.07
2018-05-31T12:03:16.266Z,7.07
2018-05-31T12:05:43.099Z,6.65
2018-05-31T12:08:09.961Z,7.20
2018-05-31T12:10:36.040Z,7.10
2018-05-31T12:13:02.138Z,7.20
2018-05-31T12:15:28.245Z,7.25
2018-05-31T12:17:54.340Z,7.28
2018-05-31T12:20:20.440Z,7.00
2018-05-31T12:22:46.539Z,6.25
2018-05-31T12:25:12.633Z,7.15
2018-05-31T12:27:39.470Z,6.80
2018-05-31T12:30:06.298Z,6.70
2018-05-31T12:32:32.390Z,6.78
2018-05-31T12:34:58.486Z,7.30
2018-05-31T12:37:24.577Z,7.43
2018-05-31T12:39:50.666Z,6.70
2018-05-31T12:42:16.752Z,6.80
2018-05-31T12:44:43.586Z,7.07
2018-05-31T12:47:10.422Z,6.57
2018-05-31T12:49:36.518Z,6.62
2018-05-31T12:52:02.598Z,6.47
2018-05-31T12:54:28.697Z,7.10
2018-05-31T12:56:54.785Z,6.03
2018-05-31T12:59:20.873Z,6.35
2018-05-31T13:01:46.965Z,6.32
2018-05-31T13:04:13.122Z,6.70
2018-05-31T13:06:39.966Z,9.73
2018-05-31T13:09:06.802Z,6.78
2018-05-31T13:11:33.645Z,6.18
2018-05-31T13:14:00.465Z,5.95
2018-05-31T13:16:26.569Z,6.70
2018-05-31T13:18:52.674Z,6.82
2018-05-31T13:21:18.774Z,6.45
2018-05-31T13:23:45.590Z,6.43
2018-05-31T13:26:11.682Z,6.80
2018-05-31T13:28:37.774Z,6.75
2018-05-31T13:31:03.872Z,6.25
2018-05-31T13:33:30.701Z,6.55
2018-05-31T13:35:57.531Z,6.00
2018-05-31T13:38:23.638Z,6.70
2018-05-31T13:40:49.735Z,5.93
2018-05-31T13:43:15.826Z,8.25
2018-05-31T13:45:41.924Z,6.30
2018-05-31T13:48:09.375Z,6.07
2018-05-31T13:50:35.474Z,7.12
2018-05-31T13:53:01.566Z,6.43
2018-05-31T13:55:27.671Z,6.65
2018-05-31T13:57:53.757Z,6.45
2018-05-31T14:00:19.854Z,6.28
2018-05-31T14:02:46.690Z,6.47
2018-05-31T14:05:12.790Z,6.47
2018-05-31T14:07:38.890Z,6.55
2018-05-31T14:10:04.969Z,6.22
2018-05-31T14:12:31.066Z,6.60
2018-05-31T14:14:57.145Z,6.50
2018-05-31T14:17:23.241Z,6.90
2018-05-31T14:19:49.318Z,6.05
2018-05-31T14:22:15.457Z,6.85
2018-05-31T14:24:41.550Z,6.40
2018-05-31T14:27:07.650Z,7.32
2018-05-31T14:29:33.737Z,6.50
2018-05-31T14:31:59.834Z,6.80
2018-05-31T14:34:25.925Z,6.70
2018-05-31T14:36:52.017Z,6.85
2018-05-31T14:39:18.121Z,7.00
2018-05-31T14:41:45.232Z,7.00
2018-05-31T14:44:12.067Z,7.18
2018-05-31T14:46:38.904Z,6.50
2018-05-31T14:49:04.999Z,6.97
2018-05-31T14:51:31.089Z,6.70
2018-05-31T14:53:57.178Z,6.50
2018-05-31T14:56:23.279Z,6.47
2018-05-31T14:58:49.365Z,6.28
2018-05-31T15:01:15.453Z,8.25
2018-05-31T15:03:41.558Z,7.10
2018-05-31T15:06:07.641Z,7.05
2018-05-31T15:08:33.737Z,6.75
2018-05-31T15:10:59.824Z,6.35
2018-05-31T15:13:25.921Z,6.62
2018-05-31T15:15:52.015Z,6.18
2018-05-31T15:18:18.118Z,6.53
2018-05-31T15:20:44.216Z,6.80
2018-05-31T15:23:10.311Z,6.70
2018-05-31T15:25:37.141Z,6.43
2018-05-31T15:28:03.237Z,6.95
2018-05-31T15:30:29.322Z,6.20
2018-05-31T15:32:55.418Z,6.65
2018-05-31T15:35:21.507Z,6.97
2018-05-31T15:37:47.618Z,6.32
2018-05-31T15:40:13.717Z,6.50
2018-05-31T15:42:40.553Z,6.25
2018-05-31T15:45:07.377Z,6.22
2018-05-31T15:47:58.326Z,6.53
2018-05-31T15:50:24.419Z,5.95
2018-05-31T15:52:51.263Z,6.40
2018-05-31T15:55:18.094Z,6.05
2018-05-31T15:57:44.185Z,5.90
2018-05-31T16:00:10.282Z,6.18
2018-05-31T16:02:36.391Z,5.80
2018-05-31T16:05:03.221Z,6.05
2018-05-31T16:07:30.075Z,6.03
2018-05-31T16:09:56.914Z,6.10
2018-05-31T16:12:23.008Z,6.05
2018-05-31T16:14:49.097Z,5.70
2018-05-31T16:17:15.190Z,5.87
2018-05-31T16:19:42.030Z,6.05
2018-05-31T16:22:08.861Z,5.80
2018-05-31T16:24:34.954Z,6.00
2018-05-31T16:27:01.042Z,5.45
2018-05-31T16:29:27.893Z,5.70
2018-05-31T16:31:53.970Z,5.50
2018-05-31T16:34:20.078Z,5.60
2018-05-31T16:36:46.166Z,6.22
2018-05-31T16:39:12.265Z,6.53
2018-05-31T16:41:38.366Z,6.32
2018-05-31T16:44:14.732Z,6.05
2018-05-31T16:46:41.344Z,6.18
2018-05-31T16:49:07.459Z,5.75
2018-05-31T16:54:33.533Z,5.53
2018-05-31T16:56:59.633Z,6.03
2018-05-31T16:59:26.110Z,5.72
2018-05-31T17:01:52.235Z,5.75
2018-05-31T17:04:18.354Z,5.85
2018-05-31T17:06:44.433Z,6.05
2018-05-31T17:09:11.278Z,5.80
2018-05-31T17:11:37.370Z,5.72
2018-05-31T17:14:03.463Z,5.18
2018-05-31T17:16:29.545Z,6.25
2018-05-31T17:18:56.386Z,5.47
2018-05-31T17:21:23.217Z,6.55
2018-05-31T17:23:49.326Z,6.62
2018-05-31T17:26:15.422Z,6.10
2018-05-31T17:28:41.513Z,5.90
2018-05-31T17:31:08.357Z,6.07
2018-05-31T17:33:35.190Z,6.05
2018-05-31T17:36:02.040Z,5.87
2018-05-31T17:38:28.875Z,5.62
2018-05-31T17:40:55.709Z,6.30
2018-05-31T17:43:21.802Z,6.30
2018-05-31T17:45:47.907Z,6.00
2018-05-31T17:48:14.007Z,6.40
2018-05-31T17:50:40.845Z,5.95
2018-05-31T17:53:07.687Z,6.03
2018-05-31T17:55:34.526Z,6.45
2018-05-31T17:58:01.362Z,5.80
2018-05-31T18:00:27.463Z,6.30
2018-05-31T18:02:53.552Z,5.65
2018-05-31T18:05:19.663Z,5.47
2018-05-31T18:07:45.757Z,6.20
2018-05-31T18:10:13.341Z,6.45
2018-05-31T18:12:40.179Z,5.82
2018-05-31T18:15:07.030Z,6.45
2018-05-31T18:17:33.866Z,6.45
2018-05-31T18:20:00.698Z,6.43
2018-05-31T18:22:27.533Z,6.43
2018-05-31T18:24:53.622Z,6.75
2018-05-31T18:27:19.722Z,6.40
2018-05-31T18:29:45.839Z,6.78
2018-05-31T18:32:12.683Z,6.18
2018-05-31T18:34:38.801Z,6.28
2018-05-31T18:37:04.874Z,7.03
2018-05-31T18:39:30.978Z,6.18
2018-05-31T18:41:57.082Z,6.65
2018-05-31T18:44:23.919Z,6.32
2018-05-31T18:46:50.011Z,6.15
2018-05-31T18:49:16.103Z,6.15
2018-05-31T18:51:42.198Z,6.60
2018-05-31T18:54:09.030Z,6.53
2018-05-31T18:56:35.123Z,6.97
2018-05-31T18:59:01.209Z,6.15
2018-05-31T19:01:27.305Z,6.10
2018-05-31T19:03:53.402Z,6.32
2018-05-31T19:06:19.501Z,6.15
2018-05-31T19:08:45.606Z,6.32
2018-05-31T19:11:12.443Z,6.18
2018-05-31T19:13:45.298Z,5.80
2018-05-31T19:16:11.398Z,6.03
2018-05-31T19:21:45.300Z,6.30
2018-05-31T19:24:17.571Z,6.20
2018-05-31T19:26:43.675Z,6.40
2018-05-31T19:29:15.203Z,6.07
2018-05-31T19:31:41.300Z,6.50
2018-05-31T19:34:07.395Z,6.45
2018-05-31T19:36:39.745Z,6.62
2018-05-31T19:39:39.975Z,6.47
2018-05-31T19:42:34.532Z,6.65
2018-05-31T19:45:04.301Z,7.55
2018-05-31T19:47:35.026Z,6.57
2018-05-31T19:50:01.863Z,7.62
2018-05-31T19:52:38.502Z,7.25
2018-05-31T19:55:06.618Z,7.12
2018-05-31T19:57:32.718Z,6.82
2018-05-31T20:03:25.471Z,7.70
2018-05-31T20:05:51.577Z,8.38
2018-05-31T20:08:31.262Z,8.13
2018-05-31T20:10:57.346Z,7.80
2018-05-31T20:13:50.173Z,7.25
2018-05-31T20:16:16.273Z,7.80
2018-05-31T20:18:43.115Z,7.30
2018-05-31T20:21:09.958Z,7.62
2018-05-31T20:24:04.321Z,8.02
2018-05-31T20:26:30.427Z,7.28
2018-05-31T20:28:58.581Z,6.97
2018-05-31T20:34:43.018Z,6.65
2018-05-31T20:37:09.118Z,6.90
2018-05-31T20:39:43.226Z,6.90
2018-05-31T20:42:09.403Z,6.80
2018-05-31T20:44:46.442Z,7.00
2018-05-31T20:47:17.846Z,7.30
2018-05-31T20:50:11.245Z,6.62
2018-05-31T20:52:37.359Z,7.18
2018-05-31T20:55:03.554Z,7.50
2018-05-31T20:57:30.378Z,7.55
2018-05-31T20:59:57.240Z,7.12
2018-05-31T21:02:24.068Z,7.40
2018-05-31T21:05:05.034Z,7.43
2018-05-31T21:07:31.124Z,7.93
2018-05-31T21:09:57.225Z,8.65
2018-05-31T21:12:23.324Z,8.23
2018-05-31T21:14:50.164Z,8.98
2018-05-31T21:17:16.262Z,9.02
2018-05-31T21:25:44.225Z,7.37
2018-05-31T21:28:10.330Z,8.13
2018-05-31T21:30:37.170Z,7.72
2018-05-31T21:33:17.311Z,7.45
2018-05-31T21:35:43.605Z,8.10
2018-05-31T21:38:10.298Z,7.30
2018-05-31T21:40:37.137Z,7.65
2018-05-31T21:43:03.226Z,7.30
2018-05-31T21:45:29.328Z,8.18
2018-05-31T21:47:55.417Z,7.60
2018-05-31T21:50:22.254Z,7.82
2018-05-31T21:52:48.343Z,7.80
2018-05-31T21:55:14.437Z,8.35
2018-05-31T21:57:40.530Z,8.40
2018-05-31T22:00:06.638Z,9.70
2018-05-31T22:02:33.486Z,8.82
2018-05-31T22:04:59.594Z,9.23
2018-05-31T22:07:25.706Z,9.27
2018-05-31T22:09:51.809Z,8.73
2018-05-31T22:12:17.897Z,8.63
2018-05-31T22:14:44.002Z,8.73
2018-05-31T22:17:10.100Z,9.43
2018-05-31T22:19:36.199Z,9.18
2018-05-31T22:22:03.046Z,9.75
2018-05-31T22:24:29.885Z,9.90
2018-05-31T22:26:56.720Z,10.43
2018-05-31T22:29:23.549Z,10.10
2018-05-31T22:31:49.651Z,10.25
2018-05-31T22:34:15.833Z,10.35
2018-05-31T22:36:41.965Z,9.85
2018-05-31T22:39:08.790Z,10.75
2018-05-31T22:41:35.643Z,10.55
2018-05-31T22:44:01.730Z,11.82
2018-05-31T22:46:27.834Z,11.55
2018-05-31T22:48:53.925Z,11.25
2018-05-31T22:51:20.025Z,11.70
2018-05-31T22:53:46.122Z,11.93
2018-05-31T22:56:12.231Z,12.45
2018-05-31T22:58:38.321Z,12.70
2018-05-31T23:01:05.154Z,12.80
2018-05-31T23:03:31.994Z,11.95
2018-05-31T23:05:58.850Z,12.85
2018-05-31T23:11:21.592Z,12.27
2018-05-31T23:13:47.690Z,12.25
2018-05-31T23:16:13.786Z,12.02
2018-05-31T23:18:39.878Z,12.00
2018-05-31T23:21:06.012Z,12.45
2018-05-31T23:23:32.859Z,12.27
2018-05-31T23:25:59.704Z,11.57
2018-05-31T23:28:26.533Z,12.45
2018-05-31T23:30:52.621Z,12.35
2018-05-31T23:33:18.723Z,12.43
2018-05-31T23:35:44.819Z,12.55
2018-05-31T23:38:11.662Z,11.93
2018-05-31T23:40:38.497Z,11.77
2018-05-31T23:43:04.606Z,12.23
2018-05-31T23:45:30.702Z,11.40
2018-05-31T23:47:56.802Z,10.75
2018-05-31T23:50:22.911Z,11.15
2018-05-31T23:52:49.771Z,11.02
2018-05-31T23:55:15.868Z,11.20
2018-05-31T23:57:41.970Z,10.75
